Time;durP1;ratioP1;P1;durP2;ratioP2;P2;SDS_P1;SDS_P2;PMS_P1;PMS_P2;Temp;Humidity;BMP_temperature;BMP_pressure;BME280_temperature;BME280_humidity;BME280_pressure;Samples;Min_cycle;Max_cycle;Signal;HPM_P1;HPM_P2
2023/03/15 00:07:48;1525707.00;5.09;2691.59;63087.00;0.21;109.81;;;;;7.30;1.00;;;;;;2272184;40;3739;-87
2023/03/15 00:12:43;1433257.00;4.78;2518.15;36694.00;0.12;64.17;;;;;7.50;1.00;;;;;;2266072;61;1294;-88
2023/03/15 00:15:14;822067.00;2.74;1419.64;18155.00;0.06;32.07;;;;;7.50;1.00;;;;;;2279620;55;3735;-89
2023/03/15 00:33:20;1130747.00;3.77;1965.50;0.00;0.00;0.62;;;;;6.00;1.00;;;;;;2316709;40;3465;-87
2023/03/15 00:43:17;777885.00;2.59;1342.58;0.00;0.00;0.62;;;;;6.70;1.00;;;;;;1562430;55;3650;-86
2023/03/15 00:50:45;1222059.00;4.07;2130.15;0.00;0.00;0.62;;;;;6.50;1.00;;;;;;2285601;40;3470;-88
2023/03/15 01:00:41;1271974.00;4.24;2220.91;0.00;0.00;0.62;;;;;6.60;1.00;;;;;;2276917;40;3509;-87
2023/03/15 01:05:37;945166.00;3.15;1635.59;0.00;0.00;0.62;;;;;7.10;1.00;;;;;;2276724;56;3641;-88
2023/03/15 01:10:37;972410.00;3.24;1683.67;0.00;0.00;0.62;;;;;7.30;1.00;;;;;;1203880;56;3600;-88
2023/03/15 01:18:03;1355255.00;4.52;2373.59;0.00;0.00;0.62;;;;;7.30;1.00;;;;;;2278580;40;3518;-88
2023/03/15 01:30:37;1198572.00;4.00;2087.64;0.00;0.00;0.62;;;;;7.40;1.00;;;;;;2277111;55;3743;-87
2023/03/15 01:33:04;723812.00;2.41;1248.56;0.00;0.00;0.62;;;;;7.30;1.00;;;;;;2283293;56;3787;-89
2023/03/15 01:43:15;1185945.00;3.95;2064.83;0.00;0.00;0.62;;;;;7.40;1.00;;;;;;1955249;56;3582;-87
2023/03/15 01:50:45;1167813.00;3.89;2032.13;0.00;0.00;0.62;;;;;7.60;1.00;;;;;;2266061;61;1401;-89
2023/03/15 01:53:13;491872.00;1.64;847.83;0.00;0.00;0.62;;;;;7.50;1.00;;;;;;2275164;55;3787;-88
2023/03/15 01:58:11;1317845.00;4.39;2304.80;28842.00;0.10;50.58;;;;;7.10;1.00;;;;;;2262109;61;1227;-90
2023/03/15 02:03:13;1037642.00;3.46;1799.26;0.00;0.00;0.62;;;;;7.20;1.00;;;;;;2261673;61;1911;-89
2023/03/15 02:05:47;596466.00;1.99;1028.12;0.00;0.00;0.62;;;;;7.10;1.00;;;;;;2260120;61;1617;-89
2023/03/15 02:08:17;826712.00;2.76;1427.75;32863.00;0.11;57.54;;;;;6.90;1.00;;;;;;2259878;61;1117;-86
2023/03/15 02:13:18;867020.00;2.89;1498.27;0.00;0.00;0.62;;;;;6.40;1.00;;;;;;2265868;61;1400;-88
2023/03/15 02:15:46;609773.00;2.03;1051.10;0.00;0.00;0.62;;;;;6.10;1.00;;;;;;2317953;40;3850;-87
2023/03/15 02:23:15;1408439.00;4.69;2471.98;25071.00;0.08;44.05;;;;;5.90;1.00;;;;;;2277799;55;3691;-90
2023/03/15 02:25:51;977831.00;3.26;1693.25;0.00;0.00;0.62;;;;;5.80;1.00;;;;;;2284513;40;3627;-88
2023/03/15 02:30:49;1695917.00;5.65;3017.49;156479.00;0.52;270.97;;;;;5.60;1.00;;;;;;2265615;61;1459;-89
2023/03/15 02:33:21;1537780.00;5.13;2714.41;179524.00;0.60;310.67;;;;;5.70;1.00;;;;;;2272038;55;3813;-87
2023/03/15 02:35:48;2182674.00;7.28;4006.41;258388.00;0.86;446.38;;;;;5.70;1.00;;;;;;2282721;56;3788;-89
2023/03/15 02:38:15;1917783.00;6.39;3456.85;210064.00;0.70;363.25;;;;;5.70;1.00;;;;;;2268063;61;932;-88
2023/03/15 02:40:42;1381343.00;4.60;2421.77;237399.00;0.79;410.28;;;;;5.70;1.00;;;;;;2268813;55;3780;-87
2023/03/15 02:43:16;894013.00;2.98;1545.61;91108.00;0.30;158.22;;;;;6.00;1.00;;;;;;2273995;55;3795;-87
2023/03/15 02:48:12;1389230.00;4.63;2436.36;108262.00;0.36;187.83;;;;;5.90;1.00;;;;;;2270110;61;1408;-89
2023/03/15 02:50:39;1065579.00;3.55;1848.97;106962.00;0.36;185.59;;;;;5.70;1.00;;;;;;2268081;61;1452;-90
2023/03/15 02:58:05;1246702.00;4.16;2174.89;93559.00;0.31;162.45;;;;;5.40;1.00;;;;;;2269652;61;1405;-89
2023/03/15 03:03:00;1365851.00;4.55;2393.14;112622.00;0.38;195.35;;;;;5.70;1.00;;;;;;2269676;61;1971;-89
2023/03/15 03:05:28;882723.00;2.94;1525.80;96083.00;0.32;166.81;;;;;5.70;1.00;;;;;;2267930;61;1070;-88
2023/03/15 03:07:55;821988.00;2.74;1419.50;94397.00;0.31;163.90;;;;;5.50;1.00;;;;;;2268096;61;841;-88
2023/03/15 03:10:22;932529.00;3.11;1613.32;132127.00;0.44;229.00;;;;;5.30;1.00;;;;;;2267878;61;1269;-89
2023/03/15 03:12:52;626737.00;2.09;1080.41;0.00;0.00;0.62;;;;;5.20;1.00;;;;;;2268093;61;897;-86
2023/03/15 03:15:19;1088742.00;3.63;1890.30;86902.00;0.29;150.96;;;;;5.10;1.00;;;;;;2275380;40;3638;-87
2023/03/15 03:17:46;917757.00;3.06;1587.33;99461.00;0.33;172.64;;;;;5.20;1.00;;;;;;2274740;56;3744;-88
2023/03/15 03:20:14;997700.00;3.33;1728.40;187169.00;0.62;323.83;;;;;5.30;1.00;;;;;;2287092;40;3766;-87
2023/03/15 03:22:44;614412.00;2.05;1059.11;0.00;0.00;0.62;;;;;5.20;1.00;;;;;;2274275;55;3762;-88
2023/03/15 03:25:12;631191.00;2.10;1088.11;0.00;0.00;0.62;;;;;5.30;1.00;;;;;;2272364;55;3595;-86
2023/03/15 03:27:39;118459936.00;394.87;67336960.00;117900824.00;393.00;66387148.00;;;;;5.30;1.00;;;;;;2267787;61;2196;-88
2023/03/15 03:32:34;1196572.00;3.99;2084.02;0.00;0.00;0.62;;;;;5.10;1.00;;;;;;2265435;61;1429;-85
2023/03/15 03:35:01;118144000.00;393.81;66799144.00;0.00;0.00;0.62;;;;;5.00;1.00;;;;;;2263739;61;957;-86
2023/03/15 03:37:29;524101.00;1.75;903.33;0.00;0.00;0.62;;;;;4.90;1.00;;;;;;2263926;61;1028;-87
2023/03/15 03:42:27;1022931.00;3.41;1773.13;0.00;0.00;0.62;;;;;5.20;1.00;;;;;;2266521;61;1294;-87
2023/03/15 03:44:54;418701.00;1.40;721.96;0.00;0.00;0.62;;;;;5.30;1.00;;;;;;2271117;40;3448;-87
2023/03/15 03:47:21;751548.00;2.51;1296.75;0.00;0.00;0.62;;;;;5.70;1.00;;;;;;2267761;61;1090;-87
2023/03/15 03:49:48;606366.00;2.02;1045.21;0.00;0.00;0.62;;;;;5.90;1.00;;;;;;2267909;61;1578;-88
2023/03/15 03:54:43;1129485.00;3.76;1963.23;0.00;0.00;0.62;;;;;5.60;1.00;;;;;;2265829;61;1384;-87
2023/03/15 03:57:10;712187.00;2.37;1228.38;0.00;0.00;0.62;;;;;5.40;1.00;;;;;;2263848;61;1134;-87
2023/03/15 03:59:39;703957.00;2.35;1214.10;0.00;0.00;0.62;;;;;5.30;1.00;;;;;;2263815;61;1376;-85
2023/03/15 04:02:06;556355.00;1.85;958.92;0.00;0.00;0.62;;;;;5.30;1.00;;;;;;2264097;61;966;-86
2023/03/15 04:04:32;448422.00;1.49;773.07;0.00;0.00;0.62;;;;;5.50;1.00;;;;;;2264014;61;1998;-87
2023/03/15 04:06:59;812566.00;2.71;1403.05;25946.00;0.09;45.57;;;;;5.60;1.00;;;;;;2264063;61;1078;-87
2023/03/15 04:09:26;462972.00;1.54;798.10;0.00;0.00;0.62;;;;;5.60;1.00;;;;;;2264119;61;1404;-88
2023/03/15 04:11:53;575732.00;1.92;992.34;0.00;0.00;0.62;;;;;5.80;1.00;;;;;;2274280;40;3607;-87
2023/03/15 04:19:18;1018998.00;3.40;1766.15;0.00;0.00;0.62;;;;;5.50;1.00;;;;;;2270097;55;3620;-87
2023/03/15 04:24:14;947101.00;3.16;1639.00;0.00;0.00;0.62;;;;;5.60;1.00;;;;;;2269794;55;3655;-87
2023/03/15 04:29:11;914336.00;3.05;1581.31;0.00;0.00;0.62;;;;;5.40;1.00;;;;;;2266022;61;1388;-86
2023/03/15 04:31:38;510085.00;1.70;879.19;36689.00;0.12;64.16;;;;;5.40;1.00;;;;;;2264146;61;1058;-87
2023/03/15 04:34:05;753107.00;2.51;1299.46;0.00;0.00;0.62;;;;;5.30;1.00;;;;;;2280345;55;3775;-88
2023/03/15 04:36:34;511280.00;1.70;881.25;0.00;0.00;0.62;;;;;5.50;1.00;;;;;;2275786;55;3707;-84
2023/03/15 04:43:59;1120352.00;3.73;1946.86;0.00;0.00;0.62;;;;;5.10;1.00;;;;;;2275732;55;3700;-88
2023/03/15 04:46:26;746153.00;2.49;1287.37;0.00;0.00;0.62;;;;;5.10;1.00;;;;;;2266233;40;3611;-85
2023/03/15 04:48:53;616666.00;2.06;1063.01;0.00;0.00;0.62;;;;;5.20;1.00;;;;;;2259965;61;897;-86
2023/03/15 04:51:20;715625.00;2.39;1234.34;6756.00;0.02;12.33;;;;;5.10;1.00;;;;;;2265820;55;3847;-86
2023/03/15 04:53:48;631559.00;2.11;1088.74;12050.00;0.04;21.50;;;;;5.10;1.00;;;;;;2276058;40;3572;-87
2023/03/15 04:56:15;765270.00;2.55;1320.62;0.00;0.00;0.62;;;;;5.30;1.00;;;;;;2283971;40;3636;-86
2023/03/15 05:06:07;1140461.00;3.80;1982.94;0.00;0.00;0.62;;;;;5.00;1.00;;;;;;2277643;40;3476;-87
2023/03/15 05:08:35;814151.00;2.71;1405.81;0.00;0.00;0.62;;;;;5.00;1.00;;;;;;2267858;61;1013;-88
2023/03/15 05:11:04;118402984.00;394.68;67239792.00;87051.00;0.29;151.22;;;;;4.80;1.00;;;;;;2267959;61;1308;-87
2023/03/15 05:13:32;791566.00;2.64;1366.42;0.00;0.00;0.62;;;;;4.90;1.00;;;;;;2267986;61;1083;-87
2023/03/15 05:15:58;640727.00;2.14;1104.60;0.00;0.00;0.62;;;;;4.70;1.00;;;;;;2267625;61;974;-88
2023/03/15 05:18:25;951369.00;3.17;1646.53;0.00;0.00;0.62;;;;;4.70;1.00;;;;;;2268068;61;1026;-86
2023/03/15 05:20:54;665822.00;2.22;1148.02;0.00;0.00;0.62;;;;;4.90;1.00;;;;;;2267947;61;1395;-87
2023/03/15 05:23:22;693933.00;2.31;1196.72;0.00;0.00;0.62;;;;;4.90;1.00;;;;;;2267977;61;1997;-89
2023/03/15 05:25:52;768134.00;2.56;1325.60;0.00;0.00;0.62;;;;;4.80;1.00;;;;;;2275052;56;3838;-86
2023/03/15 05:28:21;557196.00;1.86;960.37;0.00;0.00;0.62;;;;;4.70;1.00;;;;;;2267942;61;1095;-86
2023/03/15 05:30:48;1009838.00;3.37;1749.90;24587.00;0.08;43.21;;;;;4.60;1.00;;;;;;2267959;61;1399;-84
2023/03/15 05:33:15;904058.00;3.01;1563.25;0.00;0.00;0.62;;;;;4.50;1.00;;;;;;2275115;40;3653;-86
2023/03/15 05:35:44;697067.00;2.32;1202.15;0.00;0.00;0.62;;;;;4.40;1.00;;;;;;2267851;61;1039;-87
2023/03/15 05:38:13;839946.00;2.80;1450.88;33719.00;0.11;59.02;;;;;4.30;1.00;;;;;;2267906;61;899;-88
2023/03/15 05:40:40;748245.00;2.49;1291.01;0.00;0.00;0.62;;;;;4.30;1.00;;;;;;2267737;61;1419;-87
2023/03/15 05:43:07;498613.00;1.66;859.44;0.00;0.00;0.62;;;;;4.40;1.00;;;;;;2267876;61;1563;-87
2023/03/15 05:45:36;461940.00;1.54;796.32;0.00;0.00;0.62;;;;;4.50;1.00;;;;;;2267855;61;1958;-85
2023/03/15 05:48:03;447553.00;1.49;771.57;0.00;0.00;0.62;;;;;4.50;1.00;;;;;;2267978;61;1043;-86
2023/03/15 05:50:30;523948.00;1.75;903.07;0.00;0.00;0.62;;;;;4.40;1.00;;;;;;2268272;61;1348;-89
2023/03/15 05:52:58;699490.00;2.33;1206.35;0.00;0.00;0.62;;;;;4.70;1.00;;;;;;2270269;55;3768;-90
2023/03/15 05:55:25;509472.00;1.70;878.13;0.00;0.00;0.62;;;;;4.50;1.00;;;;;;2268642;61;1280;-87
2023/03/15 05:57:52;566187.00;1.89;975.87;23702.00;0.08;41.68;;;;;4.40;1.00;;;;;;2268658;61;1618;-87
2023/03/15 06:02:52;816244.00;2.72;1409.47;0.00;0.00;0.62;;;;;4.60;1.00;;;;;;2266126;61;1389;-85
2023/03/15 06:05:19;359724.00;1.20;620.57;0.00;0.00;0.62;;;;;5.10;1.00;;;;;;2264620;61;1993;-86
2023/03/15 06:07:46;565648.00;1.89;974.94;0.00;0.00;0.62;;;;;5.60;1.00;;;;;;2264430;61;898;-87
2023/03/15 06:10:12;590256.00;1.97;1017.40;0.00;0.00;0.62;;;;;6.20;1.00;;;;;;2264386;61;1685;-87
2023/03/15 06:12:40;267003.00;0.89;461.19;0.00;0.00;0.62;;;;;6.80;1.00;;;;;;2264527;61;1146;-86
2023/03/15 06:15:08;722347.00;2.41;1246.01;0.00;0.00;0.62;;;;;7.10;1.00;;;;;;2264433;61;1068;-88
2023/03/15 06:17:35;1301386.00;4.34;2274.64;3630.00;0.01;6.91;;;;;7.30;1.00;;;;;;2274525;40;3776;-89
2023/03/15 06:22:35;2073915.00;6.91;3777.22;82339.00;0.27;143.08;;;;;8.00;1.00;;;;;;2266057;61;1421;-87
2023/03/15 06:27:32;1384614.00;4.62;2427.82;53134.00;0.18;92.61;;;;;9.00;1.00;;;;;;2266058;40;3504;-87
2023/03/15 06:32:31;1745824.00;5.82;3114.81;167390.00;0.56;289.77;;;;;8.70;1.00;;;;;;2292923;40;3543;-85
2023/03/15 06:34:58;1810706.00;6.04;3242.61;355000.00;1.18;612.45;;;;;9.30;1.00;;;;;;2275155;56;3768;-86
2023/03/15 06:39:54;1148690.00;3.83;1997.72;102654.00;0.34;178.15;;;;;10.90;1.00;;;;;;2266072;61;1405;-87
2023/03/15 06:42:21;118938984.00;396.46;68157944.00;102717.00;0.34;178.26;;;;;12.00;1.00;;;;;;2264233;61;1537;-87
2023/03/15 06:44:48;662876.00;2.21;1142.92;93975.00;0.31;163.17;;;;;12.20;1.00;;;;;;1934879;55;3887;-86
2023/03/15 06:47:15;542160.00;1.81;934.45;104635.00;0.35;181.57;;;;;12.80;1.00;;;;;;2284226;40;3563;-85
2023/03/15 06:52:12;918469.00;3.06;1588.58;95306.00;0.32;165.47;;;;;12.80;1.00;;;;;;2269494;40;3486;-86
2023/03/15 06:54:39;574214.00;1.91;989.72;100343.00;0.33;174.16;;;;;12.70;1.00;;;;;;2270534;55;3737;-85
2023/03/15 06:57:08;865255.00;2.88;1495.18;0.00;0.00;0.62;;;;;12.50;1.00;;;;;;2274601;55;3774;-86
2023/03/15 06:59:35;376250.00;1.25;648.98;0.00;0.00;0.62;;;;;12.70;1.00;;;;;;2270868;40;3593;-87
2023/03/15 07:02:02;496346.00;1.65;855.53;0.00;0.00;0.62;;;;;13.00;1.00;;;;;;2268036;61;1658;-87
2023/03/15 07:11:58;807475.00;2.69;1394.16;0.00;0.00;0.62;;;;;12.40;1.00;;;;;;2265600;61;1537;-86
2023/03/15 07:16:56;545678.00;1.82;940.51;0.00;0.00;0.62;;;;;12.20;1.00;;;;;;2266582;61;1325;-87
2023/03/15 07:19:23;904378.00;3.01;1563.81;90585.00;0.30;157.32;;;;;11.90;1.00;;;;;;2279593;56;3786;-87
2023/03/15 07:21:50;285028.00;0.95;492.18;0.00;0.00;0.62;;;;;11.40;1.00;;;;;;2268264;61;1020;-87
2023/03/15 07:29:18;659908.00;2.20;1137.78;0.00;0.00;0.62;;;;;10.30;1.00;;;;;;2266164;61;1391;-88
2023/03/15 07:31:45;676507.00;2.26;1166.52;58082.00;0.19;101.16;;;;;10.20;1.00;;;;;;2271886;55;3761;-87
2023/03/15 07:34:13;507771.00;1.69;875.20;0.00;0.00;0.62;;;;;10.40;1.00;;;;;;2270284;55;3726;-87
2023/03/15 07:36:40;968630.00;3.23;1676.99;86060.00;0.29;149.50;;;;;10.60;1.00;;;;;;2268086;61;1020;-85
2023/03/15 07:41:41;471064.00;1.57;812.02;0.00;0.00;0.62;;;;;11.40;1.00;;;;;;2266587;61;1362;-87
2023/03/15 07:44:08;353878.00;1.18;610.53;0.00;0.00;0.62;;;;;12.10;1.00;;;;;;2264172;61;1990;-89
2023/03/15 07:46:35;490898.00;1.64;846.15;33586.00;0.11;58.79;;;;;11.90;1.00;;;;;;2264167;61;1522;-88
2023/03/15 07:49:02;485396.00;1.62;836.68;0.00;0.00;0.62;;;;;11.50;1.00;;;;;;2273309;40;3711;-85
2023/03/15 07:51:30;574299.00;1.91;989.86;19729.00;0.07;34.80;;;;;11.80;1.00;;;;;;2268020;61;1313;-86
2023/03/15 07:56:27;543393.00;1.81;936.57;0.00;0.00;0.62;;;;;12.70;1.00;;;;;;2266598;61;1349;-88
2023/03/15 07:58:54;214701.00;0.72;371.23;0.00;0.00;0.62;;;;;13.10;1.00;;;;;;2264775;61;1070;-88
2023/03/15 08:01:21;871730.00;2.91;1506.52;120897.00;0.40;209.63;;;;;12.50;1.00;;;;;;2264096;61;1535;-86
2023/03/15 08:06:17;1128282.00;3.76;1961.08;30836.00;0.10;54.03;;;;;11.20;1.00;;;;;;2265969;61;1994;-86
2023/03/15 08:08:46;2289273.00;7.63;4236.21;331646.00;1.11;572.32;;;;;11.40;1.00;;;;;;2263687;61;1009;-86
2023/03/15 08:11:13;1863667.00;6.21;3348.04;133103.00;0.44;230.68;;;;;11.20;1.00;;;;;;2263941;61;1625;-86
2023/03/15 08:13:40;1450878.00;4.84;2551.02;237856.00;0.79;411.06;;;;;11.20;1.00;;;;;;2263982;61;997;-88
2023/03/15 08:18:35;991970.00;3.31;1718.26;120954.00;0.40;209.73;;;;;11.10;1.00;;;;;;2265701;61;1424;-87
2023/03/15 08:21:03;733936.00;2.45;1266.14;175256.00;0.58;303.32;;;;;11.10;1.00;;;;;;2264063;61;1309;-87
2023/03/15 08:23:30;703404.00;2.34;1213.14;108757.00;0.36;188.69;;;;;11.30;1.00;;;;;;2263934;61;1568;-87
2023/03/15 08:25:58;635319.00;2.12;1095.24;89735.00;0.30;155.85;;;;;11.00;1.00;;;;;;2263948;61;1911;-87
2023/03/15 08:30:54;1002163.00;3.34;1736.30;0.00;0.00;0.62;;;;;10.70;1.00;;;;;;2277325;56;3616;-87
2023/03/15 08:35:54;1204990.00;4.02;2099.24;0.00;0.00;0.62;;;;;10.80;1.00;;;;;;2266153;61;1405;-88
2023/03/15 08:38:21;409306.00;1.36;705.80;0.00;0.00;0.62;;;;;10.70;1.00;;;;;;2264097;61;1106;-87
2023/03/15 08:40:48;303286.00;1.01;523.57;0.00;0.00;0.62;;;;;10.90;1.00;;;;;;2264006;61;1398;-86
2023/03/15 08:43:16;365837.00;1.22;631.08;0.00;0.00;0.62;;;;;10.80;1.00;;;;;;2264139;61;1056;-87
2023/03/15 08:45:43;535476.00;1.78;922.93;0.00;0.00;0.62;;;;;10.30;1.00;;;;;;2264057;61;1918;-89
2023/03/15 08:48:13;201137.00;0.67;347.88;0.00;0.00;0.62;;;;;10.00;1.00;;;;;;2264277;61;996;-87
2023/03/15 08:50:40;489596.00;1.63;843.91;64422.00;0.21;112.12;;;;;9.80;1.00;;;;;;2264183;61;1370;-88
2023/03/15 08:53:08;325106.00;1.08;561.07;0.00;0.00;0.62;;;;;9.20;1.00;;;;;;2264206;61;1119;-89
2023/03/15 08:55:34;345991.00;1.15;596.97;0.00;0.00;0.62;;;;;9.10;1.00;;;;;;2264081;61;2268;-88
2023/03/15 08:58:03;168894.00;0.56;292.36;0.00;0.00;0.62;;;;;9.20;1.00;;;;;;2264093;61;2073;-87
2023/03/15 09:00:31;241026.00;0.80;416.52;0.00;0.00;0.62;;;;;9.70;1.00;;;;;;2264089;61;1772;-87
2023/03/15 09:02:58;277920.00;0.93;479.96;0.00;0.00;0.62;;;;;9.60;1.00;;;;;;2264251;61;2040;-87
2023/03/15 09:05:26;298184.00;0.99;514.80;0.00;0.00;0.62;;;;;9.50;1.00;;;;;;2264117;61;1916;-87
2023/03/15 09:07:53;402467.00;1.34;694.05;43587.00;0.15;76.09;;;;;9.30;1.00;;;;;;2264225;61;1133;-87
2023/03/15 09:10:21;230871.00;0.77;399.05;0.00;0.00;0.62;;;;;9.50;1.00;;;;;;2264218;61;1285;-88
2023/03/15 09:12:51;624460.00;2.08;1076.47;46834.00;0.16;81.71;;;;;9.90;1.00;;;;;;2264128;61;1662;-89
2023/03/15 09:15:18;193841.00;0.65;335.32;0.00;0.00;0.62;;;;;10.20;1.00;;;;;;2264132;61;1146;-87
2023/03/15 09:17:48;369486.00;1.23;637.35;0.00;0.00;0.62;;;;;10.30;1.00;;;;;;2264129;61;1618;-86
2023/03/15 09:20:17;178652.00;0.60;309.17;0.00;0.00;0.62;;;;;10.50;1.00;;;;;;2264110;61;1333;-87
2023/03/15 09:22:50;523467.00;1.74;902.24;13438.00;0.04;23.91;;;;;10.70;1.00;;;;;;2264097;61;1270;-86
2023/03/15 09:25:17;159070.00;0.53;275.44;0.00;0.00;0.62;;;;;10.50;1.00;;;;;;2264457;61;1981;-87
2023/03/15 09:27:44;331340.00;1.10;571.79;0.00;0.00;0.62;;;;;10.30;1.00;;;;;;2264824;61;1036;-89
2023/03/15 09:30:12;201961.00;0.67;349.30;0.00;0.00;0.62;;;;;10.60;1.00;;;;;;2264447;61;1303;-87
2023/03/15 09:32:39;465509.00;1.55;802.46;0.00;0.00;0.62;;;;;10.80;1.00;;;;;;2264762;61;1601;-87
2023/03/15 09:35:12;1256226.00;4.19;2192.21;157201.00;0.52;272.22;;;;;11.00;1.00;;;;;;2264623;61;1119;-88
2023/03/15 09:37:39;1303582.00;4.35;2278.66;117081.00;0.39;203.05;;;;;11.60;1.00;;;;;;2264867;61;1064;-87
2023/03/15 09:40:07;1748633.00;5.83;3120.31;159727.00;0.53;276.57;;;;;11.70;1.00;;;;;;2264675;61;1619;-86
2023/03/15 09:42:54;1724573.00;5.75;3073.27;257364.00;0.86;444.62;;;;;11.40;1.00;;;;;;2264775;61;1141;-87
2023/03/15 09:45:28;1121082.00;3.74;1948.17;223477.00;0.74;386.33;;;;;11.50;1.00;;;;;;2264711;61;1988;-86
2023/03/15 09:48:04;646583.00;2.16;1114.72;81127.00;0.27;140.98;;;;;11.10;1.00;;;;;;2264752;61;1107;-87
2023/03/15 09:50:39;511890.00;1.71;882.30;99525.00;0.33;172.75;;;;;11.40;1.00;;;;;;2264771;61;1474;-84
2023/03/15 09:53:13;545821.00;1.82;940.76;88474.00;0.29;153.67;;;;;11.30;1.00;;;;;;2264653;61;1125;-88
2023/03/15 09:55:44;264838.00;0.88;457.47;0.00;0.00;0.62;;;;;11.20;1.00;;;;;;2264646;61;1542;-87
2023/03/15 09:58:16;301035.00;1.00;519.70;0.00;0.00;0.62;;;;;11.40;1.00;;;;;;2264682;61;986;-86
2023/03/15 10:00:46;151128.00;0.50;261.75;0.00;0.00;0.62;;;;;11.60;1.00;;;;;;2264646;61;1462;-86
2023/03/15 10:03:20;283150.00;0.94;488.95;0.00;0.00;0.62;;;;;11.80;1.00;;;;;;2264629;61;923;-87
2023/03/15 10:05:55;211546.00;0.71;365.80;0.00;0.00;0.62;;;;;11.40;1.00;;;;;;2264620;61;1918;-85
2023/03/15 10:08:24;213723.00;0.71;369.54;0.00;0.00;0.62;;;;;11.20;1.00;;;;;;2264714;61;944;-86
2023/03/15 10:10:55;322463.00;1.07;556.53;0.00;0.00;0.62;;;;;11.20;1.00;;;;;;2284968;56;3771;-85
2023/03/15 10:13:41;341860.00;1.14;589.87;25685.00;0.09;45.11;;;;;11.40;1.00;;;;;;2260643;61;928;-86
2023/03/15 10:16:22;196563.00;0.66;340.01;0.00;0.00;0.62;;;;;11.40;1.00;;;;;;2260697;61;1031;-85
2023/03/15 10:19:06;213330.00;0.71;368.87;0.00;0.00;0.62;;;;;11.10;1.00;;;;;;2260770;61;1254;-86
2023/03/15 10:21:42;253386.00;0.84;437.77;0.00;0.00;0.62;;;;;10.30;1.00;;;;;;2260626;61;1476;-87
2023/03/15 10:24:23;166992.00;0.56;289.09;0.00;0.00;0.62;;;;;10.20;1.00;;;;;;2260701;61;1119;-88
2023/03/15 10:26:53;387816.00;1.29;668.86;0.00;0.00;0.62;;;;;10.00;1.00;;;;;;2260625;61;1930;-87
2023/03/15 10:29:23;197027.00;0.66;340.81;0.00;0.00;0.62;;;;;10.00;1.00;;;;;;2260605;61;1412;-88
2023/03/15 10:31:52;238001.00;0.79;411.31;0.00;0.00;0.62;;;;;10.30;1.00;;;;;;2260565;61;1103;-87
2023/03/15 10:34:18;138084.00;0.46;239.27;0.00;0.00;0.62;;;;;10.70;1.00;;;;;;2260579;61;1057;-86
2023/03/15 10:36:53;196325.00;0.65;339.60;0.00;0.00;0.62;;;;;11.00;1.00;;;;;;2260525;61;1013;-86
2023/03/15 10:39:20;301144.00;1.00;519.89;0.00;0.00;0.62;;;;;11.00;1.00;;;;;;2260476;61;1638;-87
2023/03/15 10:44:19;719289.00;2.40;1240.70;0.00;0.00;0.62;;;;;11.50;1.00;;;;;;2266139;61;1245;-88
2023/03/15 10:47:02;718021.00;2.39;1238.50;31118.00;0.10;54.52;;;;;11.50;1.00;;;;;;2264422;61;1985;-84
2023/03/15 10:49:40;1093643.00;3.65;1899.06;170535.00;0.57;295.19;;;;;11.80;1.00;;;;;;2264511;61;1505;-90
2023/03/15 10:52:27;1336884.00;4.46;2339.77;187275.00;0.62;324.02;;;;;12.10;1.00;;;;;;2264448;61;880;-87
2023/03/15 10:54:54;1120902.00;3.74;1947.84;112896.00;0.38;195.83;;;;;11.90;1.00;;;;;;2264469;61;1115;-86
2023/03/15 10:57:39;1187328.00;3.96;2067.33;195749.00;0.65;338.61;;;;;11.80;1.00;;;;;;2264440;61;960;-86
2023/03/15 11:00:22;1249849.00;4.17;2180.61;121041.00;0.40;209.88;;;;;11.90;1.00;;;;;;2264438;61;1464;-86
2023/03/15 11:02:51;1055044.00;3.52;1830.21;57622.00;0.19;100.37;;;;;11.90;1.00;;;;;;2264412;61;923;-88
2023/03/15 11:05:19;1808698.00;6.03;3238.63;233128.00;0.78;402.93;;;;;12.40;1.00;;;;;;2264208;61;1919;-87
2023/03/15 11:08:00;1740746.00;5.80;3104.87;126338.00;0.42;219.01;;;;;12.60;1.00;;;;;;2264312;61;1141;-88
2023/03/15 11:10:28;1746731.00;5.82;3116.59;248438.00;0.83;429.26;;;;;12.70;1.00;;;;;;2264345;61;1302;-88
2023/03/15 11:13:18;1312794.00;4.38;2295.54;87204.00;0.29;151.48;;;;;12.20;1.00;;;;;;2264347;61;996;-87
2023/03/15 11:15:53;988754.00;3.30;1712.56;163724.00;0.55;283.46;;;;;12.00;1.00;;;;;;2264294;61;1727;-86
2023/03/15 11:18:26;1166732.00;3.89;2030.19;102566.00;0.34;178.00;;;;;12.00;1.00;;;;;;2264426;61;1118;-86
2023/03/15 11:20:56;1676411.00;5.59;2979.68;213325.00;0.71;368.86;;;;;12.50;1.00;;;;;;2264365;61;1452;-85
2023/03/15 11:23:28;1454408.00;4.85;2557.62;190092.00;0.63;328.87;;;;;12.80;1.00;;;;;;2264433;61;1082;-86
2023/03/15 11:25:55;1156020.00;3.85;2010.90;241568.00;0.81;417.45;;;;;13.00;1.00;;;;;;2264439;61;1986;-88
2023/03/15 11:28:27;1562489.00;5.21;2761.26;149215.00;0.50;258.45;;;;;13.00;1.00;;;;;;2264421;61;1084;-86
2023/03/15 11:30:58;1226034.00;4.09;2137.36;145793.00;0.49;252.56;;;;;13.00;1.00;;;;;;2264339;61;1437;-86
2023/03/15 11:33:33;830171.00;2.77;1433.79;168909.00;0.56;292.39;;;;;12.80;1.00;;;;;;2264365;61;1189;-86
2023/03/15 11:36:06;926845.00;3.09;1603.32;131782.00;0.44;228.40;;;;;12.60;1.00;;;;;;2264327;61;990;-87
2023/03/15 11:38:42;1239520.00;4.13;2161.84;236936.00;0.79;409.48;;;;;12.70;1.00;;;;;;2264389;61;1530;-87
2023/03/15 11:41:21;1277825.00;4.26;2231.58;165710.00;0.55;286.88;;;;;12.60;1.00;;;;;;2264254;61;1389;-86
2023/03/15 11:43:56;1308969.00;4.36;2288.53;207755.00;0.69;359.27;;;;;12.40;1.00;;;;;;2264305;61;1052;-86
2023/03/15 11:46:31;1145368.00;3.82;1991.75;180008.00;0.60;311.50;;;;;12.50;1.00;;;;;;2264276;61;2003;-86
2023/03/15 11:49:09;1239038.00;4.13;2160.96;211159.00;0.70;365.13;;;;;12.50;1.00;;;;;;2264227;61;936;-88
2023/03/15 11:51:37;937890.00;3.13;1622.77;132711.00;0.44;230.00;;;;;12.50;1.00;;;;;;2264398;61;1010;-87
2023/03/15 11:54:14;672610.00;2.24;1159.77;114655.00;0.38;198.86;;;;;12.80;1.00;;;;;;2264208;61;1038;-86
2023/03/15 11:56:53;1261243.00;4.20;2201.35;161488.00;0.54;279.60;;;;;12.60;1.00;;;;;;2264223;61;1139;-85
2023/03/15 11:59:28;914601.00;3.05;1581.78;44544.00;0.15;77.75;;;;;12.70;1.00;;;;;;2268159;55;3786;-87
2023/03/15 12:01:58;998869.00;3.33;1730.47;70670.00;0.24;122.92;;;;;13.10;1.00;;;;;;2268200;61;1813;-86
2023/03/15 12:07:03;463360.00;1.54;798.77;99599.00;0.33;172.88;;;;;12.70;1.00;;;;;;937749;40;3093;-87
2023/03/15 12:09:50;130327.00;0.43;225.89;0.00;0.00;0.62;;;;;12.60;1.00;;;;;;2268968;61;1203;-88
2023/03/15 12:12:40;496936.00;1.66;856.55;0.00;0.00;0.62;;;;;12.90;1.00;;;;;;2268025;61;1026;-88
2023/03/15 12:17:46;826241.00;2.75;1426.93;80766.00;0.27;140.36;;;;;13.00;1.00;;;;;;2266498;61;1238;-87
2023/03/15 12:20:26;886838.00;2.96;1533.01;111917.00;0.37;194.14;;;;;12.80;1.00;;;;;;2264141;61;1373;-87
2023/03/15 12:23:06;525252.00;1.75;905.31;114269.00;0.38;198.20;;;;;12.80;1.00;;;;;;2264084;61;1005;-87
2023/03/15 12:25:38;736562.00;2.46;1270.70;154398.00;0.51;267.39;;;;;12.30;1.00;;;;;;2264323;61;1910;-86
2023/03/15 12:28:09;656576.00;2.19;1132.01;102080.00;0.34;177.16;;;;;11.90;1.00;;;;;;2264253;61;1049;-86
2023/03/15 12:30:42;568329.00;1.89;979.56;93124.00;0.31;161.70;;;;;12.30;1.00;;;;;;2264008;61;1343;-87
2023/03/15 12:33:16;297684.00;0.99;513.94;0.00;0.00;0.62;;;;;12.80;1.00;;;;;;2264319;61;1041;-88
2023/03/15 12:35:44;235985.00;0.79;407.84;0.00;0.00;0.62;;;;;13.10;1.00;;;;;;2274093;40;3643;-87
2023/03/15 12:38:16;184393.00;0.61;319.05;0.00;0.00;0.62;;;;;13.40;1.00;;;;;;2268220;61;1009;-87
2023/03/15 12:40:54;183435.00;0.61;317.40;0.00;0.00;0.62;;;;;13.10;1.00;;;;;;2268227;61;1362;-88
2023/03/15 12:43:43;383503.00;1.28;661.45;0.00;0.00;0.62;;;;;13.20;1.00;;;;;;2268110;61;1106;-86
2023/03/15 12:46:48;387487.00;1.29;668.29;0.00;0.00;0.62;;;;;13.20;1.00;;;;;;2267391;61;2010;-85
2023/03/15 12:49:33;360084.00;1.20;621.19;0.00;0.00;0.62;;;;;13.60;1.00;;;;;;2265507;61;1413;-86
2023/03/15 12:52:03;147781.00;0.49;255.98;0.00;0.00;0.62;;;;;13.90;1.00;;;;;;2268272;61;1028;-88
2023/03/15 12:54:39;381387.00;1.27;657.81;22999.00;0.08;40.46;;;;;14.00;1.00;;;;;;2268131;61;1146;-87